Time;durP1;ratioP1;P1;durP2;ratioP2;P2;SDS_P1;SDS_P2;PMS_P1;PMS_P2;Temp;Humidity;BMP_temperature;BMP_pressure;BME280_temperature;BME280_humidity;BME280_pressure;Samples;Min_cycle;Max_cycle;Signal;HPM_P1;HPM_P2
2023/04/21 00:02:07;;;;;;;34.27;22.17;;;;;;;;;;4969514;28;20473;-85
2023/04/21 00:04:34;;;;;;;28.10;21.63;;;;;;;;;;4966071;28;20944;-83
2023/04/21 00:07:02;;;;;;;31.90;22.40;;;;;;;;;;4969524;28;20913;-84
2023/04/21 00:09:28;;;;;;;36.27;24.00;;;;;;;;;;4981387;28;20440;-83
2023/04/21 00:11:54;;;;;;;33.63;23.37;;;;;;;;;;4994451;28;20436;-84
2023/04/21 00:14:20;;;;;;;30.63;22.33;;;;;;;;;;4990702;28;20444;-83
2023/04/21 00:16:51;;;;;;;30.73;21.70;;;;;;;;;;4983457;28;20749;-84
2023/04/21 00:19:18;;;;;;;27.30;22.40;;;;;;;;;;4967001;28;20497;-84
2023/04/21 00:21:44;;;;;;;27.23;20.53;;;;;;;;;;4962372;28;20473;-82
2023/04/21 00:24:11;;;;;;;32.03;22.67;;;;;;;;;;4969296;28;20429;-84
2023/04/21 00:26:37;;;;;;;33.80;24.60;;;;;;;;;;4951422;28;20453;-84
2023/04/21 00:29:03;;;;;;;33.57;23.73;;;;;;;;;;4967256;28;20449;-83
2023/04/21 00:31:29;;;;;;;39.03;23.90;;;;;;;;;;4964789;28;20805;-83
2023/04/21 00:33:55;;;;;;;30.93;23.13;;;;;;;;;;4967951;28;20442;-83
2023/04/21 00:36:23;;;;;;;37.67;24.30;;;;;;;;;;4966915;28;20512;-85
2023/04/21 00:38:49;;;;;;;35.13;26.47;;;;;;;;;;4962852;28;20507;-85
2023/04/21 00:41:15;;;;;;;40.47;24.50;;;;;;;;;;4966490;28;20465;-82
2023/04/21 00:44:00;;;;;;;33.60;24.30;;;;;;;;;;4966191;28;20888;-83
2023/04/21 00:46:26;;;;;;;39.93;26.20;;;;;;;;;;4966098;28;20661;-83
2023/04/21 00:48:52;;;;;;;39.20;26.77;;;;;;;;;;4962888;28;21025;-84
2023/04/21 00:51:19;;;;;;;35.13;24.20;;;;;;;;;;4960033;28;20747;-83
2023/04/21 00:53:45;;;;;;;38.10;24.50;;;;;;;;;;4966038;28;20448;-84
2023/04/21 00:56:11;;;;;;;35.80;24.40;;;;;;;;;;4965061;28;20433;-83
2023/04/21 00:58:38;;;;;;;42.47;26.30;;;;;;;;;;4966736;28;21229;-85
2023/04/21 01:01:05;;;;;;;37.97;23.77;;;;;;;;;;4968785;28;20472;-84
2023/04/21 01:03:31;;;;;;;38.53;26.33;;;;;;;;;;4966318;28;20790;-85
2023/04/21 01:05:57;;;;;;;39.17;26.57;;;;;;;;;;4968375;28;20928;-84
2023/04/21 01:08:23;;;;;;;39.10;24.50;;;;;;;;;;4968165;28;20527;-83
2023/04/21 01:10:49;;;;;;;44.27;26.40;;;;;;;;;;4967239;28;20441;-83
2023/04/21 01:13:19;;;;;;;38.53;25.50;;;;;;;;;;4967291;28;20445;-83
2023/04/21 01:15:45;;;;;;;39.50;26.43;;;;;;;;;;4965420;28;20908;-84
2023/04/21 01:18:11;;;;;;;39.27;26.07;;;;;;;;;;4967786;28;20545;-85
2023/04/21 01:20:37;;;;;;;39.17;25.40;;;;;;;;;;4958348;28;20787;-84
2023/04/21 01:23:04;;;;;;;32.50;22.77;;;;;;;;;;4966587;28;20426;-85
2023/04/21 01:25:30;;;;;;;42.90;26.67;;;;;;;;;;4965309;28;20449;-84
2023/04/21 01:27:56;;;;;;;38.27;26.73;;;;;;;;;;4970673;28;20437;-84
2023/04/21 01:30:22;;;;;;;41.20;24.93;;;;;;;;;;4962245;28;20509;-84
2023/04/21 01:32:48;;;;;;;37.93;26.30;;;;;;;;;;4968200;28;20432;-85
2023/04/21 01:35:14;;;;;;;40.33;26.30;;;;;;;;;;4964989;28;20864;-83
2023/04/21 01:37:40;;;;;;;40.47;26.40;;;;;;;;;;4961161;28;20450;-83
2023/04/21 01:40:08;;;;;;;43.63;27.90;;;;;;;;;;4956258;28;20444;-83
2023/04/21 01:42:35;;;;;;;43.33;27.03;;;;;;;;;;4952215;28;20841;-84
2023/04/21 01:45:01;;;;;;;49.13;27.13;;;;;;;;;;4964462;28;21011;-83
2023/04/21 01:47:27;;;;;;;43.13;26.77;;;;;;;;;;4966316;28;20460;-83
2023/04/21 01:49:53;;;;;;;46.03;27.43;;;;;;;;;;4964786;28;20440;-83
2023/04/21 01:52:20;;;;;;;45.57;26.97;;;;;;;;;;4957640;28;20430;-83
2023/04/21 01:54:46;;;;;;;43.73;28.97;;;;;;;;;;4955770;28;21179;-83
2023/04/21 01:57:12;;;;;;;45.70;27.67;;;;;;;;;;4966508;28;20790;-83
2023/04/21 01:59:38;;;;;;;43.93;28.67;;;;;;;;;;4962395;28;20445;-83
2023/04/21 02:02:04;;;;;;;42.33;27.33;;;;;;;;;;4966691;28;20893;-83
2023/04/21 02:04:30;;;;;;;42.80;27.43;;;;;;;;;;4961840;28;20449;-83
2023/04/21 02:06:59;;;;;;;48.00;28.03;;;;;;;;;;4965952;28;20568;-82
2023/04/21 02:09:25;;;;;;;46.83;25.00;;;;;;;;;;4962512;28;20442;-82
2023/04/21 02:11:51;;;;;;;38.97;26.23;;;;;;;;;;4966693;28;20519;-83
2023/04/21 02:14:17;;;;;;;40.73;27.87;;;;;;;;;;4964877;28;20811;-83
2023/04/21 02:16:43;;;;;;;41.10;26.43;;;;;;;;;;4979270;28;20464;-82
2023/04/21 02:19:09;;;;;;;43.30;28.00;;;;;;;;;;4986328;28;20750;-82
2023/04/21 02:21:35;;;;;;;42.80;28.00;;;;;;;;;;4974583;28;20511;-83
2023/04/21 02:24:01;;;;;;;43.57;26.50;;;;;;;;;;4965314;28;20780;-82
2023/04/21 02:26:27;;;;;;;42.10;27.17;;;;;;;;;;4957166;28;20942;-83
2023/04/21 02:28:53;;;;;;;45.67;28.50;;;;;;;;;;4964409;28;20495;-83
2023/04/21 02:31:19;;;;;;;48.10;30.33;;;;;;;;;;4964757;28;20536;-82
2023/04/21 02:33:45;;;;;;;50.57;28.33;;;;;;;;;;4964795;28;20952;-83
2023/04/21 02:36:11;;;;;;;55.90;30.00;;;;;;;;;;4964309;28;20779;-82
2023/04/21 02:38:38;;;;;;;43.57;29.50;;;;;;;;;;4964990;28;20449;-83
2023/04/21 02:41:04;;;;;;;45.73;28.23;;;;;;;;;;4963795;28;20472;-84
2023/04/21 02:43:30;;;;;;;39.70;28.47;;;;;;;;;;4965008;28;20982;-83
2023/04/21 02:45:56;;;;;;;42.57;28.03;;;;;;;;;;4963811;28;20536;-83
2023/04/21 02:48:22;;;;;;;45.67;28.10;;;;;;;;;;4965630;28;20488;-82
2023/04/21 02:50:49;;;;;;;46.57;29.60;;;;;;;;;;4964687;28;20461;-83
2023/04/21 02:53:15;;;;;;;44.10;30.27;;;;;;;;;;4967919;28;20425;-83
2023/04/21 02:55:42;;;;;;;46.80;29.63;;;;;;;;;;4964275;28;20488;-83
2023/04/21 02:58:08;;;;;;;45.43;29.17;;;;;;;;;;4966053;28;20418;-83
2023/04/21 03:00:34;;;;;;;46.03;27.33;;;;;;;;;;4963191;28;20429;-83
2023/04/21 03:03:00;;;;;;;51.60;28.87;;;;;;;;;;4965756;28;20460;-83
2023/04/21 03:05:26;;;;;;;42.87;29.80;;;;;;;;;;4962768;28;21115;-83
2023/04/21 03:07:52;;;;;;;52.77;29.90;;;;;;;;;;4966304;28;20473;-82
2023/04/21 03:10:18;;;;;;;49.73;27.67;;;;;;;;;;4945858;28;20445;-82
2023/04/21 03:12:44;;;;;;;46.53;29.03;;;;;;;;;;4965771;28;21125;-82
2023/04/21 03:15:13;;;;;;;43.37;28.20;;;;;;;;;;4962383;28;20523;-82
2023/04/21 03:17:39;;;;;;;46.00;28.57;;;;;;;;;;4959619;28;20451;-81
2023/04/21 03:20:07;;;;;;;44.50;28.37;;;;;;;;;;4957488;28;21019;-82
2023/04/21 03:22:33;;;;;;;45.37;29.07;;;;;;;;;;4958289;28;20596;-83
2023/04/21 03:24:59;;;;;;;44.93;29.07;;;;;;;;;;4962385;28;20448;-82
2023/04/21 03:27:25;;;;;;;46.70;27.50;;;;;;;;;;4967408;28;20433;-83
2023/04/21 03:29:51;;;;;;;56.50;29.93;;;;;;;;;;4965380;28;20495;-82
2023/04/21 03:32:17;;;;;;;48.30;28.43;;;;;;;;;;4966384;28;20532;-82
2023/04/21 03:34:43;;;;;;;48.53;28.20;;;;;;;;;;4965770;28;20433;-81
2023/04/21 03:37:09;;;;;;;43.77;28.00;;;;;;;;;;4966839;28;20456;-81
2023/04/21 03:39:35;;;;;;;47.37;29.70;;;;;;;;;;4965703;28;20441;-82
2023/04/21 03:42:01;;;;;;;50.50;29.83;;;;;;;;;;4969603;28;20471;-82
2023/04/21 03:44:27;;;;;;;51.10;29.07;;;;;;;;;;4965998;28;20443;-82
2023/04/21 03:46:54;;;;;;;50.27;29.33;;;;;;;;;;4969377;28;20433;-81
2023/04/21 03:49:20;;;;;;;52.83;32.03;;;;;;;;;;4965684;28;20444;-81
2023/04/21 03:51:46;;;;;;;49.70;29.63;;;;;;;;;;4967256;28;20965;-82
2023/04/21 03:54:12;;;;;;;46.30;30.00;;;;;;;;;;4966753;28;20437;-80
2023/04/21 03:56:38;;;;;;;47.53;29.97;;;;;;;;;;4967597;28;20778;-83
2023/04/21 03:59:05;;;;;;;58.13;31.03;;;;;;;;;;4967596;28;20433;-82
2023/04/21 04:01:31;;;;;;;47.33;29.73;;;;;;;;;;4967326;28;20468;-81
2023/04/21 04:03:57;;;;;;;54.67;32.20;;;;;;;;;;4967381;28;20437;-81
2023/04/21 04:06:23;;;;;;;43.27;28.17;;;;;;;;;;4966092;28;20444;-82
2023/04/21 04:08:49;;;;;;;57.03;30.33;;;;;;;;;;4962581;28;20433;-81
2023/04/21 04:11:15;;;;;;;47.57;30.40;;;;;;;;;;4966172;28;20492;-81
2023/04/21 04:13:41;;;;;;;45.20;28.53;;;;;;;;;;4963126;28;20465;-82
2023/04/21 04:16:07;;;;;;;59.33;30.73;;;;;;;;;;4968015;28;20469;-82
2023/04/21 04:18:33;;;;;;;55.00;30.87;;;;;;;;;;4981586;28;20790;-81
2023/04/21 04:21:05;;;;;;;49.40;30.10;;;;;;;;;;4984557;28;20465;-81
2023/04/21 04:23:31;;;;;;;51.97;30.17;;;;;;;;;;4984351;28;21050;-82
2023/04/21 04:25:57;;;;;;;52.33;30.10;;;;;;;;;;4979819;28;20754;-81
2023/04/21 04:28:23;;;;;;;50.90;27.73;;;;;;;;;;4970567;28;20425;-81
2023/04/21 04:30:49;;;;;;;45.00;28.50;;;;;;;;;;4953384;28;20485;-82
2023/04/21 04:33:15;;;;;;;53.07;32.30;;;;;;;;;;4964118;28;20485;-82
2023/04/21 04:35:41;;;;;;;56.90;31.33;;;;;;;;;;4962657;28;20440;-81
2023/04/21 04:38:07;;;;;;;49.37;31.07;;;;;;;;;;4967646;28;20433;-82
2023/04/21 04:40:33;;;;;;;49.13;28.93;;;;;;;;;;4958394;28;20966;-82
2023/04/21 04:43:01;;;;;;;54.20;32.73;;;;;;;;;;4964392;28;20489;-83
2023/04/21 04:45:30;;;;;;;47.53;30.93;;;;;;;;;;4960870;28;20480;-82
2023/04/21 04:47:56;;;;;;;52.97;32.07;;;;;;;;;;4968160;28;20975;-82
2023/04/21 04:50:23;;;;;;;46.67;30.63;;;;;;;;;;4965266;28;20437;-79
2023/04/21 04:52:50;;;;;;;44.90;29.27;;;;;;;;;;4948181;28;20798;-81
2023/04/21 04:55:16;;;;;;;52.07;29.47;;;;;;;;;;4965355;28;20476;-81
2023/04/21 04:57:42;;;;;;;50.57;31.60;;;;;;;;;;4968638;28;20444;-81
2023/04/21 05:00:10;;;;;;;54.13;29.37;;;;;;;;;;4957498;28;20950;-82
2023/04/21 05:02:36;;;;;;;54.37;31.17;;;;;;;;;;4963208;28;20580;-82
2023/04/21 05:05:02;;;;;;;56.83;32.17;;;;;;;;;;4963766;28;20485;-81
2023/04/21 05:07:28;;;;;;;46.37;30.37;;;;;;;;;;4964271;28;21193;-81
2023/04/21 05:09:54;;;;;;;54.13;30.03;;;;;;;;;;4968423;28;20428;-84
2023/04/21 05:12:20;;;;;;;53.67;28.70;;;;;;;;;;4964369;28;20441;-82
2023/04/21 05:14:46;;;;;;;59.97;32.80;;;;;;;;;;4968070;28;20449;-82
2023/04/21 05:17:12;;;;;;;57.50;34.00;;;;;;;;;;4960686;28;20465;-80
2023/04/21 05:19:38;;;;;;;59.10;32.53;;;;;;;;;;4955245;28;20414;-82
2023/04/21 05:22:07;;;;;;;46.80;29.07;;;;;;;;;;4966625;28;21264;-82
2023/04/21 05:24:34;;;;;;;54.97;31.37;;;;;;;;;;4964334;28;20430;-81
2023/04/21 05:27:01;;;;;;;60.27;32.30;;;;;;;;;;4968689;28;20512;-81
2023/04/21 05:29:28;;;;;;;50.93;30.73;;;;;;;;;;4964869;28;20442;-81
2023/04/21 05:31:54;;;;;;;54.10;31.40;;;;;;;;;;4954025;28;20457;-82
2023/04/21 05:34:20;;;;;;;47.50;30.87;;;;;;;;;;4963056;28;20440;-82
2023/04/21 05:36:47;;;;;;;54.90;33.03;;;;;;;;;;4947066;28;20445;-82
2023/04/21 05:39:15;;;;;;;43.80;28.53;;;;;;;;;;4966289;28;20438;-81
2023/04/21 05:41:41;;;;;;;43.27;26.60;;;;;;;;;;4965104;28;20473;-81
2023/04/21 05:44:08;;;;;;;38.63;26.73;;;;;;;;;;4964474;28;20557;-82
2023/04/21 05:46:34;;;;;;;41.30;27.93;;;;;;;;;;4964867;28;20878;-81
2023/04/21 05:49:03;;;;;;;38.10;28.07;;;;;;;;;;4959911;28;20446;-81
2023/04/21 05:51:30;;;;;;;34.90;24.73;;;;;;;;;;4953260;28;20532;-82
2023/04/21 05:53:57;;;;;;;33.87;25.30;;;;;;;;;;4969114;28;20437;-81
2023/04/21 05:56:23;;;;;;;34.03;26.03;;;;;;;;;;4965131;28;20528;-81
2023/04/21 05:58:49;;;;;;;33.53;24.60;;;;;;;;;;4968457;28;20520;-81
2023/04/21 06:01:15;;;;;;;32.10;26.37;;;;;;;;;;4964733;28;20931;-81
2023/04/21 06:03:41;;;;;;;36.87;26.37;;;;;;;;;;4959798;28;20461;-81
2023/04/21 06:06:08;;;;;;;32.70;24.80;;;;;;;;;;4947296;28;21012;-82
2023/04/21 06:08:34;;;;;;;29.77;22.83;;;;;;;;;;4963613;28;20508;-83
2023/04/21 06:11:00;;;;;;;30.97;24.17;;;;;;;;;;4957177;28;20612;-82
2023/04/21 06:13:26;;;;;;;35.73;26.07;;;;;;;;;;4968001;28;20500;-82
2023/04/21 06:15:53;;;;;;;29.53;22.40;;;;;;;;;;4943430;28;20528;-82
2023/04/21 06:18:19;;;;;;;29.63;23.50;;;;;;;;;;4964779;28;20417;-81
2023/04/21 06:20:52;;;;;;;28.73;24.07;;;;;;;;;;4956284;28;20580;-82
2023/04/21 06:23:18;;;;;;;30.20;23.37;;;;;;;;;;4956456;28;20769;-82
2023/04/21 06:25:44;;;;;;;38.50;25.13;;;;;;;;;;4954869;28;20453;-84
2023/04/21 06:28:10;;;;;;;32.27;25.37;;;;;;;;;;4965970;28;20850;-81
2023/04/21 06:30:36;;;;;;;36.10;25.00;;;;;;;;;;4958662;28;20445;-81
2023/04/21 06:33:03;;;;;;;32.10;24.30;;;;;;;;;;4968626;28;20456;-82
2023/04/21 06:35:29;;;;;;;34.90;24.53;;;;;;;;;;4983540;28;20726;-82
2023/04/21 06:37:55;;;;;;;34.50;27.03;;;;;;;;;;4972774;28;20465;-82
2023/04/21 06:40:21;;;;;;;32.73;23.93;;;;;;;;;;4971711;28;20440;-82
2023/04/21 06:42:47;;;;;;;34.07;24.80;;;;;;;;;;4962708;28;20468;-81
2023/04/21 06:45:13;;;;;;;32.80;26.00;;;;;;;;;;4951420;28;20473;-81
2023/04/21 06:47:40;;;;;;;31.87;24.67;;;;;;;;;;4962266;28;20456;-81
2023/04/21 06:50:06;;;;;;;33.13;25.20;;;;;;;;;;4964821;28;20421;-82
2023/04/21 06:52:32;;;;;;;36.27;26.30;;;;;;;;;;4962626;28;20948;-82
2023/04/21 06:54:58;;;;;;;30.53;23.37;;;;;;;;;;4966574;28;20432;-82
2023/04/21 06:57:24;;;;;;;32.97;24.30;;;;;;;;;;4961085;28;20527;-81
2023/04/21 06:59:50;;;;;;;34.73;25.30;;;;;;;;;;4966025;28;20579;-82
2023/04/21 07:02:16;;;;;;;35.63;25.50;;;;;;;;;;4961670;28;21223;-81
2023/04/21 07:04:42;;;;;;;34.50;24.50;;;;;;;;;;4968329;28;20414;-83
2023/04/21 07:07:08;;;;;;;33.60;23.37;;;;;;;;;;4954627;28;20485;-83
2023/04/21 07:09:34;;;;;;;31.80;21.70;;;;;;;;;;4957066;28;20516;-82
2023/04/21 07:12:01;;;;;;;30.03;24.10;;;;;;;;;;4966195;28;20451;-82
2023/04/21 07:14:27;;;;;;;33.90;26.03;;;;;;;;;;4962773;28;20472;-80
2023/04/21 07:16:55;;;;;;;32.67;23.67;;;;;;;;;;4965044;28;20813;-80
2023/04/21 07:19:21;;;;;;;33.60;24.20;;;;;;;;;;4961345;28;20518;-80
2023/04/21 07:21:47;;;;;;;31.87;24.00;;;;;;;;;;4942784;28;20794;-79
2023/04/21 07:24:13;;;;;;;35.23;26.17;;;;;;;;;;4959308;28;20830;-80
2023/04/21 07:26:40;;;;;;;33.07;25.50;;;;;;;;;;4964331;28;20472;-80
2023/04/21 07:29:06;;;;;;;38.13;26.23;;;;;;;;;;4962367;28;20448;-83
2023/04/21 07:31:32;;;;;;;32.60;25.47;;;;;;;;;;4971658;28;20425;-81
2023/04/21 07:33:58;;;;;;;34.70;25.30;;;;;;;;;;4958869;28;20441;-81
2023/04/21 07:36:25;;;;;;;38.73;24.70;;;;;;;;;;4963777;28;21094;-80
2023/04/21 07:38:51;;;;;;;34.80;24.00;;;;;;;;;;4980454;28;20441;-84
2023/04/21 07:41:17;;;;;;;33.07;25.00;;;;;;;;;;4983615;28;20581;-84
2023/04/21 07:43:43;;;;;;;33.50;25.63;;;;;;;;;;4984389;28;20433;-83
2023/04/21 07:46:09;;;;;;;30.30;24.87;;;;;;;;;;4970642;28;20562;-81
2023/04/21 07:48:35;;;;;;;29.10;24.03;;;;;;;;;;4954242;28;20887;-79
2023/04/21 07:51:02;;;;;;;36.10;25.10;;;;;;;;;;4964985;28;20531;-81
2023/04/21 07:53:28;;;;;;;35.23;26.17;;;;;;;;;;4969757;28;20811;-80
2023/04/21 07:55:54;;;;;;;36.43;27.23;;;;;;;;;;4966112;28;20437;-81
2023/04/21 07:58:20;;;;;;;30.57;24.63;;;;;;;;;;4960370;28;20981;-79
2023/04/21 08:00:47;;;;;;;35.60;25.67;;;;;;;;;;4953257;28;20827;-83
2023/04/21 08:03:13;;;;;;;30.53;25.90;;;;;;;;;;4965994;28;20440;-82
2023/04/21 08:05:39;;;;;;;33.40;27.00;;;;;;;;;;4963318;28;20449;-82
2023/04/21 08:08:06;;;;;;;33.80;27.13;;;;;;;;;;4965960;28;20429;-80
2023/04/21 08:10:32;;;;;;;30.80;25.37;;;;;;;;;;4962561;28;20421;-81
2023/04/21 08:12:58;;;;;;;37.33;26.90;;;;;;;;;;4969168;28;20437;-81
2023/04/21 08:15:24;;;;;;;34.70;25.90;;;;;;;;;;4960403;28;20496;-81
2023/04/21 08:17:51;;;;;;;31.97;25.77;;;;;;;;;;4964388;28;20445;-82
2023/04/21 08:20:17;;;;;;;31.93;26.70;;;;;;;;;;4947718;28;20968;-81
2023/04/21 08:22:43;;;;;;;33.50;25.10;;;;;;;;;;4964403;28;20500;-82
2023/04/21 08:25:09;;;;;;;31.20;25.63;;;;;;;;;;4963839;28;20447;-81
2023/04/21 08:27:38;;;;;;;31.60;26.10;;;;;;;;;;4965580;28;21101;-84
2023/04/21 08:30:05;;;;;;;31.13;25.20;;;;;;;;;;4952723;28;20446;-83
2023/04/21 08:32:31;;;;;;;34.10;25.90;;;;;;;;;;4967360;28;20428;-82
2023/04/21 08:34:57;;;;;;;29.20;25.73;;;;;;;;;;4962227;28;20433;-80
2023/04/21 08:37:23;;;;;;;30.63;24.97;;;;;;;;;;4970113;28;20719;-81
2023/04/21 08:39:49;;;;;;;31.47;25.57;;;;;;;;;;4985473;28;20742;-82
2023/04/21 08:42:19;;;;;;;28.80;24.50;;;;;;;;;;4986294;28;20637;-82
2023/04/21 08:44:45;;;;;;;28.30;23.90;;;;;;;;;;4969659;28;20509;-82
2023/04/21 08:47:12;;;;;;;35.30;24.77;;;;;;;;;;4959641;28;20448;-82
2023/04/21 08:49:38;;;;;;;29.87;22.97;;;;;;;;;;4965059;28;20456;-77
2023/04/21 08:52:05;;;;;;;28.83;24.57;;;;;;;;;;4954641;28;20418;-80
2023/04/21 08:54:31;;;;;;;33.30;26.30;;;;;;;;;;4965793;28;20436;-83
2023/04/21 08:56:58;;;;;;;29.30;23.40;;;;;;;;;;4969677;28;20409;-84
2023/04/21 08:59:24;;;;;;;31.40;24.93;;;;;;;;;;4965160;28;20441;-82
2023/04/21 09:02:10;;;;;;;30.70;24.97;;;;;;;;;;4944257;28;20856;-80
2023/04/21 09:04:40;;;;;;;30.53;24.00;;;;;;;;;;4948281;28;20445;-81
2023/04/21 09:07:07;;;;;;;27.97;23.70;;;;;;;;;;4967522;28;20413;-82
2023/04/21 09:09:33;;;;;;;31.77;23.27;;;;;;;;;;4958662;28;20434;-81
2023/04/21 09:12:00;;;;;;;33.97;26.40;;;;;;;;;;4962863;28;20517;-81
2023/04/21 09:14:39;;;;;;;32.90;25.57;;;;;;;;;;4955333;28;20516;-80
2023/04/21 09:17:05;;;;;;;29.30;23.80;;;;;;;;;;4945867;28;20414;-80
2023/04/21 09:19:33;;;;;;;28.90;22.60;;;;;;;;;;4958180;28;20484;-79
2023/04/21 09:22:00;;;;;;;29.00;23.60;;;;;;;;;;4969525;28;20469;-81
2023/04/21 09:24:26;;;;;;;31.87;24.83;;;;;;;;;;4957306;28;20426;-81
2023/04/21 09:26:52;;;;;;;28.77;23.83;;;;;;;;;;4976028;28;20431;-82
2023/04/21 09:29:18;;;;;;;30.33;24.47;;;;;;;;;;4963606;28;20934;-81
2023/04/21 09:31:44;;;;;;;32.43;23.47;;;;;;;;;;4971603;28;20480;-79
2023/04/21 09:34:18;;;;;;;32.63;24.90;;;;;;;;;;4973876;28;20486;-82
2023/04/21 09:36:46;;;;;;;36.37;24.33;;;;;;;;;;4971522;28;20437;-82
2023/04/21 09:39:12;;;;;;;28.53;24.43;;;;;;;;;;4975525;28;20448;-81
2023/04/21 09:41:38;;;;;;;30.50;26.70;;;;;;;;;;4949272;28;20474;-81
2023/04/21 09:44:04;;;;;;;31.00;25.07;;;;;;;;;;4951255;29;20509;-82
2023/04/21 09:46:33;;;;;;;30.97;26.40;;;;;;;;;;4962243;28;20438;-81
2023/04/21 09:49:02;;;;;;;28.80;24.77;;;;;;;;;;4963039;28;20434;-81
2023/04/21 09:51:30;;;;;;;34.63;24.20;;;;;;;;;;4969324;28;20448;-82
2023/04/21 09:53:59;;;;;;;26.60;23.60;;;;;;;;;;4984876;28;20468;-79
2023/04/21 09:56:25;;;;;;;28.47;23.87;;;;;;;;;;4971746;28;20533;-81
2023/04/21 09:58:57;;;;;;;26.53;23.70;;;;;;;;;;4970975;28;20564;-81
2023/04/21 10:01:26;;;;;;;31.90;25.00;;;;;;;;;;4966278;28;20483;-81
2023/04/21 10:03:52;;;;;;;27.40;23.10;;;;;;;;;;4971465;28;20422;-81
2023/04/21 10:06:18;;;;;;;32.03;23.77;;;;;;;;;;4966058;28;20968;-81
2023/04/21 10:08:48;;;;;;;25.37;22.60;;;;;;;;;;4970404;28;20433;-81
2023/04/21 10:11:15;;;;;;;29.83;22.20;;;;;;;;;;4965031;28;20449;-83
2023/04/21 10:13:41;;;;;;;34.67;25.53;;;;;;;;;;4959289;28;20434;-81
2023/04/21 10:16:09;;;;;;;28.50;22.33;;;;;;;;;;4964598;28;20889;-81
2023/04/21 10:18:36;;;;;;;32.77;23.90;;;;;;;;;;4970211;28;20455;-80
2023/04/21 10:21:09;;;;;;;27.47;21.80;;;;;;;;;;4968625;28;20565;-80
2023/04/21 10:23:36;;;;;;;27.60;21.50;;;;;;;;;;4961912;28;20906;-81
2023/04/21 10:26:25;;;;;;;24.10;21.50;;;;;;;;;;4966822;28;20889;-81
2023/04/21 10:28:54;;;;;;;24.60;22.00;;;;;;;;;;4954398;28;20437;-83
2023/04/21 10:31:22;;;;;;;29.30;23.93;;;;;;;;;;4981048;28;20575;-82
2023/04/21 10:34:06;;;;;;;26.77;23.80;;;;;;;;;;4974067;28;20441;-82
2023/04/21 10:36:42;;;;;;;26.63;22.40;;;;;;;;;;4966099;28;20441;-82
2023/04/21 10:39:11;;;;;;;27.93;23.80;;;;;;;;;;4946636;28;20418;-82
2023/04/21 10:41:37;;;;;;;29.20;23.20;;;;;;;;;;4962588;28;20859;-83
2023/04/21 10:44:06;;;;;;;26.33;22.53;;;;;;;;;;4952244;28;20468;-81
2023/04/21 10:46:34;;;;;;;28.00;22.50;;;;;;;;;;4945316;28;20814;-81
2023/04/21 10:49:10;;;;;;;25.97;22.87;;;;;;;;;;4978487;28;20478;-82
2023/04/21 10:51:54;;;;;;;26.97;22.00;;;;;;;;;;4978314;28;20452;-81
2023/04/21 10:54:21;;;;;;;27.30;21.40;;;;;;;;;;4963617;28;20527;-80
2023/04/21 10:56:49;;;;;;;23.50;21.00;;;;;;;;;;4964399;28;20430;-80
2023/04/21 10:59:15;;;;;;;28.63;22.10;;;;;;;;;;4965095;28;20569;-78
2023/04/21 11:01:42;;;;;;;29.30;22.90;;;;;;;;;;4956293;28;20462;-80
2023/04/21 11:04:13;;;;;;;31.47;22.00;;;;;;;;;;4958686;28;20457;-80
2023/04/21 11:06:39;;;;;;;28.40;23.43;;;;;;;;;;4961667;28;20913;-81
2023/04/21 11:09:05;;;;;;;26.67;20.73;;;;;;;;;;4963505;28;20849;-80
2023/04/21 11:11:31;;;;;;;24.40;21.90;;;;;;;;;;4963322;28;20444;-80
2023/04/21 11:14:01;;;;;;;24.60;22.00;;;;;;;;;;4962699;28;20433;-80
2023/04/21 11:16:27;;;;;;;23.43;20.20;;;;;;;;;;4967674;28;20497;-80
2023/04/21 11:18:55;;;;;;;23.07;20.70;;;;;;;;;;4963278;28;20433;-81
2023/04/21 11:21:23;;;;;;;24.00;20.50;;;;;;;;;;4943525;28;20853;-80
2023/04/21 11:23:53;;;;;;;23.33;20.87;;;;;;;;;;4950834;28;20445;-82
2023/04/21 11:26:29;;;;;;;23.30;21.10;;;;;;;;;;4955394;28;20406;-81
2023/04/21 11:28:55;;;;;;;22.07;19.40;;;;;;;;;;4960194;28;20448;-80
2023/04/21 11:31:27;;;;;;;23.73;21.20;;;;;;;;;;4953671;28;20607;-81
2023/04/21 11:33:54;;;;;;;22.23;20.03;;;;;;;;;;4951093;28;20807;-78
2023/04/21 11:36:21;;;;;;;24.33;21.90;;;;;;;;;;4964008;28;20406;-79
2023/04/21 11:38:47;;;;;;;22.53;20.20;;;;;;;;;;4956682;28;20686;-82
2023/04/21 11:41:21;;;;;;;23.43;21.00;;;;;;;;;;4960186;28;20461;-83
2023/04/21 11:43:47;;;;;;;23.97;21.63;;;;;;;;;;4960971;28;20433;-82
2023/04/21 11:46:17;;;;;;;22.63;20.23;;;;;;;;;;4965805;28;20429;-82
2023/04/21 11:48:46;;;;;;;22.67;20.33;;;;;;;;;;4965466;28;20441;-82
2023/04/21 11:51:19;;;;;;;22.47;20.20;;;;;;;;;;4959313;28;20795;-80
2023/04/21 11:53:48;;;;;;;30.23;21.57;;;;;;;;;;4956932;28;20470;-81
2023/04/21 11:56:18;;;;;;;22.70;20.33;;;;;;;;;;4939507;29;20450;-82
2023/04/21 11:58:45;;;;;;;20.80;18.63;;;;;;;;;;4963676;28;20476;-80
2023/04/21 12:01:11;;;;;;;22.23;19.83;;;;;;;;;;4958541;28;20473;-82
2023/04/21 12:03:37;;;;;;;22.63;20.53;;;;;;;;;;4966626;28;20543;-83
2023/04/21 12:06:03;;;;;;;21.77;19.40;;;;;;;;;;4943731;28;20810;-80
2023/04/21 12:08:31;;;;;;;22.83;20.67;;;;;;;;;;4966721;28;20448;-80
2023/04/21 12:11:00;;;;;;;21.67;18.70;;;;;;;;;;4969573;28;20734;-81
2023/04/21 12:13:30;;;;;;;22.13;16.80;;;;;;;;;;4962904;28;20465;-81
2023/04/21 12:15:56;;;;;;;21.90;19.10;;;;;;;;;;4959364;28;20557;-82
2023/04/21 12:18:26;;;;;;;23.33;18.90;;;;;;;;;;4957390;28;20445;-81
2023/04/21 12:20:52;;;;;;;20.80;18.67;;;;;;;;;;4966984;28;20417;-81
2023/04/21 12:23:19;;;;;;;19.30;17.40;;;;;;;;;;4956315;28;20445;-79
2023/04/21 12:25:45;;;;;;;19.50;17.50;;;;;;;;;;4949866;28;20863;-82
2023/04/21 12:28:12;;;;;;;19.20;17.40;;;;;;;;;;4945989;28;20453;-80
2023/04/21 12:30:38;;;;;;;19.97;17.77;;;;;;;;;;4962899;28;20425;-82
2023/04/21 12:33:04;;;;;;;19.77;17.80;;;;;;;;;;4944009;28;20827;-81
2023/04/21 12:35:32;;;;;;;20.70;18.60;;;;;;;;;;4945086;28;20426;-82
2023/04/21 12:37:58;;;;;;;19.90;17.43;;;;;;;;;;4965224;28;20477;-83
2023/04/21 12:40:24;;;;;;;18.70;16.97;;;;;;;;;;4967178;28;20560;-81
2023/04/21 12:42:50;;;;;;;19.90;18.07;;;;;;;;;;4961172;28;20469;-81
2023/04/21 12:45:16;;;;;;;19.97;17.83;;;;;;;;;;4958447;28;20421;-81
2023/04/21 12:47:42;;;;;;;21.00;19.00;;;;;;;;;;4960426;28;20430;-81
2023/04/21 12:50:10;;;;;;;19.20;17.27;;;;;;;;;;4966835;28;20433;-81
2023/04/21 12:52:36;;;;;;;18.00;16.30;;;;;;;;;;4938851;28;20666;-83
2023/04/21 12:55:02;;;;;;;18.50;16.80;;;;;;;;;;4948919;28;20473;-80
2023/04/21 12:57:28;;;;;;;18.23;16.33;;;;;;;;;;4970836;28;20491;-79
2023/04/21 12:59:54;;;;;;;17.17;15.53;;;;;;;;;;4973809;28;20448;-80
2023/04/21 13:02:20;;;;;;;19.33;15.47;;;;;;;;;;4988986;28;20463;-81
2023/04/21 13:04:46;;;;;;;18.73;17.07;;;;;;;;;;4958840;28;20528;-80
2023/04/21 13:07:14;;;;;;;20.70;17.13;;;;;;;;;;4961850;28;20411;-78
2023/04/21 13:09:41;;;;;;;16.50;15.10;;;;;;;;;;4963643;28;20556;-80
2023/04/21 13:12:07;;;;;;;19.47;16.20;;;;;;;;;;4965230;28;21155;-79
2023/04/21 13:14:33;;;;;;;17.03;15.20;;;;;;;;;;4962589;28;20437;-82
2023/04/21 13:16:59;;;;;;;17.23;15.40;;;;;;;;;;4945803;28;20434;-82
2023/04/21 13:19:25;;;;;;;15.53;14.23;;;;;;;;;;4964429;28;20813;-81
2023/04/21 13:21:51;;;;;;;16.00;14.73;;;;;;;;;;4967188;28;20532;-79
2023/04/21 13:24:18;;;;;;;16.53;13.63;;;;;;;;;;4966883;28;20898;-80
2023/04/21 13:26:44;;;;;;;17.10;15.03;;;;;;;;;;4968106;28;20488;-79
2023/04/21 13:29:10;;;;;;;17.77;16.07;;;;;;;;;;4961727;28;20938;-79
2023/04/21 13:31:36;;;;;;;18.17;16.40;;;;;;;;;;4963965;28;20444;-80
2023/04/21 13:34:02;;;;;;;17.23;15.77;;;;;;;;;;4967823;28;20476;-80
2023/04/21 13:36:28;;;;;;;19.30;17.50;;;;;;;;;;4964084;28;20511;-83
2023/04/21 13:38:55;;;;;;;18.87;16.87;;;;;;;;;;4963663;28;20549;-82
2023/04/21 13:41:21;;;;;;;17.37;15.70;;;;;;;;;;4966231;28;20481;-83
2023/04/21 13:43:47;;;;;;;16.33;14.37;;;;;;;;;;4967520;28;20953;-84
2023/04/21 13:46:13;;;;;;;15.40;13.90;;;;;;;;;;4959780;28;20434;-84
2023/04/21 13:48:39;;;;;;;17.53;16.03;;;;;;;;;;4943406;28;20449;-82
2023/04/21 13:51:06;;;;;;;16.47;15.10;;;;;;;;;;4965463;28;20753;-85
2023/04/21 13:53:32;;;;;;;15.47;14.17;;;;;;;;;;4960204;28;20442;-84
2023/04/21 13:55:58;;;;;;;15.30;14.00;;;;;;;;;;4973637;28;20468;-85
2023/04/21 13:58:24;;;;;;;14.03;12.57;;;;;;;;;;4972457;28;20456;-84
2023/04/21 14:00:50;;;;;;;13.73;12.53;;;;;;;;;;4966093;28;20959;-83
2023/04/21 14:03:16;;;;;;;13.13;12.10;;;;;;;;;;4966617;28;20475;-84
2023/04/21 14:05:42;;;;;;;12.87;11.77;;;;;;;;;;4970218;28;20528;-86
2023/04/21 14:08:08;;;;;;;11.50;10.70;;;;;;;;;;4970573;28;20881;-87
2023/04/21 14:10:34;;;;;;;11.60;10.80;;;;;;;;;;4951183;28;20475;-85
2023/04/21 14:13:00;;;;;;;11.83;10.83;;;;;;;;;;4961912;28;20449;-83
2023/04/21 14:15:26;;;;;;;11.10;10.20;;;;;;;;;;4966968;28;20544;-83